sensor_id;sensor_type;location;lat;lon;timestamp;P1;durP1;ratioP1;P2;durP2;ratioP2
24157;SDS011;12316;50.904;4.200;2022-10-10T00:00:38;7.85;;;4.70;;
24157;SDS011;12316;50.904;4.200;2022-10-10T00:03:05;6.53;;;4.43;;
24157;SDS011;12316;50.904;4.200;2022-10-10T00:05:31;7.07;;;4.28;;
24157;SDS011;12316;50.904;4.200;2022-10-10T00:07:56;10.00;;;4.53;;
24157;SDS011;12316;50.904;4.200;2022-10-10T00:10:22;6.15;;;4.47;;
24157;SDS011;12316;50.904;4.200;2022-10-10T00:12:49;6.53;;;4.30;;
24157;SDS011;12316;50.904;4.200;2022-10-10T00:15:15;10.07;;;4.63;;
24157;SDS011;12316;50.904;4.200;2022-10-10T00:17:40;6.90;;;4.50;;
24157;SDS011;12316;50.904;4.200;2022-10-10T00:20:08;8.30;;;4.55;;
24157;SDS011;12316;50.904;4.200;2022-10-10T00:22:34;9.02;;;4.70;;
24157;SDS011;12316;50.904;4.200;2022-10-10T00:25:00;9.13;;;4.60;;
24157;SDS011;12316;50.904;4.200;2022-10-10T00:27:26;7.88;;;4.47;;
24157;SDS011;12316;50.904;4.200;2022-10-10T00:29:51;7.32;;;4.35;;
24157;SDS011;12316;50.904;4.200;2022-10-10T00:32:17;6.70;;;4.53;;
24157;SDS011;12316;50.904;4.200;2022-10-10T00:34:42;9.48;;;4.93;;
24157;SDS011;12316;50.904;4.200;2022-10-10T00:37:08;6.97;;;4.78;;
24157;SDS011;12316;50.904;4.200;2022-10-10T00:39:33;6.65;;;4.55;;
24157;SDS011;12316;50.904;4.200;2022-10-10T00:41:59;7.30;;;4.25;;
24157;SDS011;12316;50.904;4.200;2022-10-10T00:44:25;6.15;;;4.30;;
24157;SDS011;12316;50.904;4.200;2022-10-10T00:46:52;6.63;;;4.43;;
24157;SDS011;12316;50.904;4.200;2022-10-10T00:49:18;7.18;;;4.57;;
24157;SDS011;12316;50.904;4.200;2022-10-10T00:51:48;9.55;;;4.85;;
24157;SDS011;12316;50.904;4.200;2022-10-10T00:54:17;8.65;;;4.30;;
24157;SDS011;12316;50.904;4.200;2022-10-10T00:56:51;7.45;;;4.50;;
24157;SDS011;12316;50.904;4.200;2022-10-10T00:59:20;7.55;;;4.13;;
24157;SDS011;12316;50.904;4.200;2022-10-10T01:01:46;6.70;;;4.55;;
24157;SDS011;12316;50.904;4.200;2022-10-10T01:04:26;9.45;;;4.95;;
24157;SDS011;12316;50.904;4.200;2022-10-10T01:07:03;8.07;;;4.25;;
24157;SDS011;12316;50.904;4.200;2022-10-10T01:09:33;8.88;;;4.75;;
24157;SDS011;12316;50.904;4.200;2022-10-10T01:17:22;8.82;;;4.97;;
24157;SDS011;12316;50.904;4.200;2022-10-10T01:23:07;8.13;;;4.60;;
24157;SDS011;12316;50.904;4.200;2022-10-10T01:26:16;7.38;;;4.53;;
24157;SDS011;12316;50.904;4.200;2022-10-10T01:31:47;7.78;;;4.93;;
24157;SDS011;12316;50.904;4.200;2022-10-10T01:36:58;7.15;;;4.63;;
24157;SDS011;12316;50.904;4.200;2022-10-10T01:39:48;7.40;;;5.05;;
24157;SDS011;12316;50.904;4.200;2022-10-10T01:44:49;8.20;;;4.70;;
24157;SDS011;12316;50.904;4.200;2022-10-10T01:47:18;6.60;;;5.00;;
24157;SDS011;12316;50.904;4.200;2022-10-10T01:49:46;8.93;;;4.95;;
24157;SDS011;12316;50.904;4.200;2022-10-10T01:52:34;7.95;;;4.60;;
24157;SDS011;12316;50.904;4.200;2022-10-10T02:03:45;5.50;;;4.80;;
24157;SDS011;12316;50.904;4.200;2022-10-10T02:06:41;6.55;;;4.65;;
24157;SDS011;12316;50.904;4.200;2022-10-10T02:09:14;9.43;;;5.00;;
24157;SDS011;12316;50.904;4.200;2022-10-10T02:11:44;7.90;;;4.63;;
24157;SDS011;12316;50.904;4.200;2022-10-10T02:14:16;6.28;;;4.40;;
24157;SDS011;12316;50.904;4.200;2022-10-10T02:16:48;10.07;;;4.80;;
24157;SDS011;12316;50.904;4.200;2022-10-10T02:19:18;8.13;;;4.55;;
24157;SDS011;12316;50.904;4.200;2022-10-10T02:21:48;7.20;;;4.70;;
24157;SDS011;12316;50.904;4.200;2022-10-10T02:24:17;7.82;;;4.90;;
24157;SDS011;12316;50.904;4.200;2022-10-10T02:26:45;6.70;;;4.60;;
24157;SDS011;12316;50.904;4.200;2022-10-10T02:29:20;6.38;;;4.47;;
24157;SDS011;12316;50.904;4.200;2022-10-10T02:32:10;6.22;;;4.47;;
24157;SDS011;12316;50.904;4.200;2022-10-10T02:34:41;6.57;;;4.50;;
24157;SDS011;12316;50.904;4.200;2022-10-10T02:37:11;8.38;;;4.50;;
24157;SDS011;12316;50.904;4.200;2022-10-10T02:39:41;7.50;;;4.80;;
24157;SDS011;12316;50.904;4.200;2022-10-10T02:42:09;8.68;;;5.18;;
24157;SDS011;12316;50.904;4.200;2022-10-10T02:44:38;7.63;;;4.85;;
24157;SDS011;12316;50.904;4.200;2022-10-10T02:47:05;7.57;;;4.38;;
24157;SDS011;12316;50.904;4.200;2022-10-10T02:49:32;7.47;;;4.53;;
24157;SDS011;12316;50.904;4.200;2022-10-10T02:51:59;7.50;;;4.80;;
24157;SDS011;12316;50.904;4.200;2022-10-10T02:54:25;7.63;;;4.63;;
24157;SDS011;12316;50.904;4.200;2022-10-10T02:56:51;10.32;;;4.95;;
24157;SDS011;12316;50.904;4.200;2022-10-10T02:59:16;6.55;;;4.40;;
24157;SDS011;12316;50.904;4.200;2022-10-10T03:01:42;10.88;;;4.90;;
24157;SDS011;12316;50.904;4.200;2022-10-10T03:04:08;6.70;;;4.63;;
24157;SDS011;12316;50.904;4.200;2022-10-10T03:06:34;6.88;;;4.30;;
24157;SDS011;12316;50.904;4.200;2022-10-10T03:09:00;6.93;;;4.90;;
24157;SDS011;12316;50.904;4.200;2022-10-10T03:11:25;7.05;;;4.70;;
24157;SDS011;12316;50.904;4.200;2022-10-10T03:13:51;9.88;;;4.95;;
24157;SDS011;12316;50.904;4.200;2022-10-10T03:16:17;7.07;;;4.78;;
24157;SDS011;12316;50.904;4.200;2022-10-10T03:18:42;6.78;;;4.57;;
24157;SDS011;12316;50.904;4.200;2022-10-10T03:21:08;8.07;;;4.60;;
24157;SDS011;12316;50.904;4.200;2022-10-10T03:23:34;6.15;;;4.72;;
24157;SDS011;12316;50.904;4.200;2022-10-10T03:25:59;8.15;;;4.85;;
24157;SDS011;12316;50.904;4.200;2022-10-10T03:28:26;9.07;;;4.55;;
24157;SDS011;12316;50.904;4.200;2022-10-10T03:30:51;10.23;;;4.78;;
24157;SDS011;12316;50.904;4.200;2022-10-10T03:33:17;6.95;;;4.18;;
24157;SDS011;12316;50.904;4.200;2022-10-10T03:35:42;6.25;;;4.30;;
24157;SDS011;12316;50.904;4.200;2022-10-10T03:38:09;8.20;;;4.97;;
24157;SDS011;12316;50.904;4.200;2022-10-10T03:40:37;8.48;;;4.20;;
24157;SDS011;12316;50.904;4.200;2022-10-10T03:43:05;7.32;;;4.07;;
24157;SDS011;12316;50.904;4.200;2022-10-10T03:45:31;6.53;;;4.13;;
24157;SDS011;12316;50.904;4.200;2022-10-10T03:47:57;6.55;;;4.43;;
24157;SDS011;12316;50.904;4.200;2022-10-10T03:50:22;9.50;;;4.60;;
24157;SDS011;12316;50.904;4.200;2022-10-10T03:52:48;9.18;;;5.03;;
24157;SDS011;12316;50.904;4.200;2022-10-10T03:55:13;9.02;;;5.05;;
24157;SDS011;12316;50.904;4.200;2022-10-10T03:57:39;8.75;;;5.00;;
24157;SDS011;12316;50.904;4.200;2022-10-10T04:00:05;9.20;;;5.00;;
24157;SDS011;12316;50.904;4.200;2022-10-10T04:02:31;11.50;;;5.35;;
24157;SDS011;12316;50.904;4.200;2022-10-10T04:04:56;8.65;;;5.35;;
24157;SDS011;12316;50.904;4.200;2022-10-10T04:07:22;8.10;;;5.43;;
24157;SDS011;12316;50.904;4.200;2022-10-10T04:09:47;11.73;;;5.45;;
24157;SDS011;12316;50.904;4.200;2022-10-10T04:12:13;8.82;;;5.47;;
24157;SDS011;12316;50.904;4.200;2022-10-10T04:14:38;12.52;;;6.00;;
24157;SDS011;12316;50.904;4.200;2022-10-10T04:17:04;8.55;;;5.28;;
24157;SDS011;12316;50.904;4.200;2022-10-10T04:19:29;11.25;;;5.63;;
24157;SDS011;12316;50.904;4.200;2022-10-10T04:21:56;8.80;;;5.32;;
24157;SDS011;12316;50.904;4.200;2022-10-10T04:24:21;7.88;;;5.45;;
24157;SDS011;12316;50.904;4.200;2022-10-10T04:26:47;9.65;;;5.20;;
24157;SDS011;12316;50.904;4.200;2022-10-10T04:29:12;8.98;;;4.80;;
24157;SDS011;12316;50.904;4.200;2022-10-10T04:31:38;9.40;;;5.50;;
24157;SDS011;12316;50.904;4.200;2022-10-10T04:34:03;7.70;;;5.43;;
24157;SDS011;12316;50.904;4.200;2022-10-10T04:36:29;9.07;;;5.55;;
24157;SDS011;12316;50.904;4.200;2022-10-10T04:38:54;9.48;;;5.22;;
24157;SDS011;12316;50.904;4.200;2022-10-10T04:41:20;8.93;;;5.18;;
24157;SDS011;12316;50.904;4.200;2022-10-10T04:43:45;10.55;;;5.68;;
24157;SDS011;12316;50.904;4.200;2022-10-10T04:46:11;12.50;;;5.45;;
24157;SDS011;12316;50.904;4.200;2022-10-10T04:48:36;11.98;;;5.65;;
24157;SDS011;12316;50.904;4.200;2022-10-10T04:51:02;6.80;;;4.95;;
24157;SDS011;12316;50.904;4.200;2022-10-10T04:53:28;9.30;;;5.35;;
24157;SDS011;12316;50.904;4.200;2022-10-10T04:55:53;8.50;;;4.97;;
24157;SDS011;12316;50.904;4.200;2022-10-10T04:58:19;8.85;;;5.78;;
24157;SDS011;12316;50.904;4.200;2022-10-10T05:00:44;6.97;;;5.18;;
24157;SDS011;12316;50.904;4.200;2022-10-10T05:03:15;10.07;;;5.53;;
24157;SDS011;12316;50.904;4.200;2022-10-10T05:05:41;11.05;;;5.72;;
24157;SDS011;12316;50.904;4.200;2022-10-10T05:08:07;10.98;;;6.10;;
24157;SDS011;12316;50.904;4.200;2022-10-10T05:10:36;12.00;;;5.55;;
24157;SDS011;12316;50.904;4.200;2022-10-10T05:13:03;7.93;;;5.35;;
24157;SDS011;12316;50.904;4.200;2022-10-10T05:15:32;10.43;;;5.60;;
24157;SDS011;12316;50.904;4.200;2022-10-10T05:17:59;7.60;;;5.20;;
24157;SDS011;12316;50.904;4.200;2022-10-10T05:20:24;10.82;;;5.57;;
24157;SDS011;12316;50.904;4.200;2022-10-10T05:22:50;10.82;;;5.32;;
24157;SDS011;12316;50.904;4.200;2022-10-10T05:25:15;8.77;;;5.45;;
24157;SDS011;12316;50.904;4.200;2022-10-10T05:27:41;11.20;;;5.50;;
24157;SDS011;12316;50.904;4.200;2022-10-10T05:30:07;10.00;;;5.43;;
24157;SDS011;12316;50.904;4.200;2022-10-10T05:32:32;8.30;;;5.82;;
24157;SDS011;12316;50.904;4.200;2022-10-10T05:34:59;8.13;;;5.47;;
24157;SDS011;12316;50.904;4.200;2022-10-10T05:37:24;10.27;;;5.47;;
24157;SDS011;12316;50.904;4.200;2022-10-10T05:39:50;10.80;;;5.82;;
24157;SDS011;12316;50.904;4.200;2022-10-10T05:42:15;7.32;;;4.75;;
24157;SDS011;12316;50.904;4.200;2022-10-10T05:44:41;12.20;;;6.03;;
24157;SDS011;12316;50.904;4.200;2022-10-10T05:47:07;10.85;;;5.50;;
24157;SDS011;12316;50.904;4.200;2022-10-10T05:49:33;10.18;;;5.65;;
24157;SDS011;12316;50.904;4.200;2022-10-10T05:51:59;15.27;;;5.72;;
24157;SDS011;12316;50.904;4.200;2022-10-10T05:54:24;10.82;;;5.60;;
24157;SDS011;12316;50.904;4.200;2022-10-10T05:56:50;8.40;;;5.30;;
24157;SDS011;12316;50.904;4.200;2022-10-10T05:59:15;10.75;;;5.50;;
24157;SDS011;12316;50.904;4.200;2022-10-10T06:01:41;9.27;;;5.82;;
24157;SDS011;12316;50.904;4.200;2022-10-10T06:04:06;11.93;;;6.22;;
24157;SDS011;12316;50.904;4.200;2022-10-10T06:06:32;11.20;;;6.10;;
24157;SDS011;12316;50.904;4.200;2022-10-10T06:08:58;11.25;;;6.60;;
24157;SDS011;12316;50.904;4.200;2022-10-10T06:11:23;10.30;;;5.85;;
24157;SDS011;12316;50.904;4.200;2022-10-10T06:13:50;16.60;;;8.95;;
24157;SDS011;12316;50.904;4.200;2022-10-10T06:16:18;11.15;;;6.57;;
24157;SDS011;12316;50.904;4.200;2022-10-10T06:18:45;9.60;;;5.78;;
24157;SDS011;12316;50.904;4.200;2022-10-10T06:21:11;10.23;;;6.15;;
24157;SDS011;12316;50.904;4.200;2022-10-10T06:23:36;12.32;;;5.75;;
24157;SDS011;12316;50.904;4.200;2022-10-10T06:26:02;8.50;;;5.60;;
24157;SDS011;12316;50.904;4.200;2022-10-10T06:28:28;10.25;;;6.28;;
24157;SDS011;12316;50.904;4.200;2022-10-10T06:51:46;12.15;;;7.90;;
24157;SDS011;12316;50.904;4.200;2022-10-10T06:54:12;12.25;;;6.88;;
24157;SDS011;12316;50.904;4.200;2022-10-10T06:56:37;12.02;;;6.57;;
24157;SDS011;12316;50.904;4.200;2022-10-10T06:59:03;19.48;;;7.07;;
24157;SDS011;12316;50.904;4.200;2022-10-10T07:01:29;15.02;;;6.68;;
24157;SDS011;12316;50.904;4.200;2022-10-10T07:03:54;13.93;;;6.70;;
24157;SDS011;12316;50.904;4.200;2022-10-10T07:06:20;10.30;;;6.03;;
24157;SDS011;12316;50.904;4.200;2022-10-10T07:08:46;10.30;;;6.47;;
24157;SDS011;12316;50.904;4.200;2022-10-10T07:11:12;12.50;;;7.07;;
24157;SDS011;12316;50.904;4.200;2022-10-10T07:13:37;14.13;;;6.65;;
24157;SDS011;12316;50.904;4.200;2022-10-10T07:16:04;15.38;;;6.25;;
24157;SDS011;12316;50.904;4.200;2022-10-10T07:18:30;13.40;;;6.10;;
24157;SDS011;12316;50.904;4.200;2022-10-10T07:20:56;13.32;;;6.88;;
24157;SDS011;12316;50.904;4.200;2022-10-10T07:23:23;13.57;;;6.25;;
24157;SDS011;12316;50.904;4.200;2022-10-10T07:25:49;12.55;;;5.47;;
24157;SDS011;12316;50.904;4.200;2022-10-10T07:28:15;9.77;;;6.38;;
24157;SDS011;12316;50.904;4.200;2022-10-10T07:30:42;10.55;;;5.82;;
24157;SDS011;12316;50.904;4.200;2022-10-10T07:33:09;14.85;;;6.13;;
24157;SDS011;12316;50.904;4.200;2022-10-10T07:35:38;13.27;;;5.50;;
24157;SDS011;12316;50.904;4.200;2022-10-10T07:38:04;20.17;;;5.80;;
24157;SDS011;12316;50.904;4.200;2022-10-10T07:40:30;10.15;;;5.10;;
24157;SDS011;12316;50.904;4.200;2022-10-10T07:42:56;11.65;;;5.10;;
24157;SDS011;12316;50.904;4.200;2022-10-10T07:45:23;12.43;;;5.07;;
24157;SDS011;12316;50.904;4.200;2022-10-10T07:47:51;12.23;;;4.80;;
24157;SDS011;12316;50.904;4.200;2022-10-10T07:50:16;9.63;;;4.53;;
24157;SDS011;12316;50.904;4.200;2022-10-10T07:52:42;14.25;;;5.25;;
24157;SDS011;12316;50.904;4.200;2022-10-10T07:55:08;12.20;;;4.30;;
24157;SDS011;12316;50.904;4.200;2022-10-10T07:57:34;16.77;;;5.30;;
24157;SDS011;12316;50.904;4.200;2022-10-10T08:00:01;11.15;;;4.63;;
24157;SDS011;12316;50.904;4.200;2022-10-10T08:02:28;10.52;;;4.95;;
24157;SDS011;12316;50.904;4.200;2022-10-10T08:04:54;11.48;;;4.55;;
24157;SDS011;12316;50.904;4.200;2022-10-10T08:07:20;13.30;;;4.95;;
24157;SDS011;12316;50.904;4.200;2022-10-10T08:09:45;18.10;;;4.80;;
24157;SDS011;12316;50.904;4.200;2022-10-10T08:12:11;13.05;;;4.68;;
24157;SDS011;12316;50.904;4.200;2022-10-10T08:55:38;13.38;;;4.72;;
